Home > Products > Valid Products > TAF

000
FTUS42 KCHS 301153
TAFCHS
TAF
KCHS 301153Z 3012/3112 VRB03KT 6SM -SHRA SCT015 BKN035
     FM301500 12008KT 6SM -SHRA SCT015 OVC035
      TEMPO 3017/3021 4SM SHRA SCT009 BKN025
     FM310000 12008KT P6SM VCSH SCT015 BKN150
     FM310800 14007KT 6SM SHRA SCT012 OVC035=



000
FTUS42 KCHS 301153
TAFSAV
TAF
KSAV 301153Z 3012/3112 06005KT P6SM VCSH SCT015 BKN035
     FM301400 10011KT 6SM -SHRA SCT015 BKN030 OVC080
      TEMPO 3016/3020 2SM +SHRA SCT008 BKN025
     FM302300 12008KT P6SM VCSH SCT015 BKN200=



000
FTUS42 KCHS 301153
TAFCHS
TAF
KCHS 301153Z 3012/3112 VRB03KT 6SM -SHRA SCT015 BKN035
     FM301500 12008KT 6SM -SHRA SCT015 OVC035
      TEMPO 3017/3021 4SM SHRA SCT009 BKN025
     FM310000 12008KT P6SM VCSH SCT015 BKN150
     FM310800 14007KT 6SM SHRA SCT012 OVC035=



000
FTUS42 KCHS 301153
TAFSAV
TAF
KSAV 301153Z 3012/3112 06005KT P6SM VCSH SCT015 BKN035
     FM301400 10011KT 6SM -SHRA SCT015 BKN030 OVC080
      TEMPO 3016/3020 2SM +SHRA SCT008 BKN025
     FM302300 12008KT P6SM VCSH SCT015 BKN200=



000
FTUS42 KCHS 300906 AAD
TAFCHS
TAF AMD
KCHS 300906Z 3009/3106 07004KT 4SM -TSRA SCT010 OVC030CB
     FM301000 VRB03KT 6SM -SHRA SCT015 BKN035
     FM301500 12008KT 6SM -SHRA SCT015 OVC035
      TEMPO 3017/3021 4SM SHRA SCT009 BKN025
     FM310000 12008KT P6SM VCSH SCT015 BKN150=



000
FTUS42 KCHS 300906 AAD
TAFCHS
TAF AMD
KCHS 300906Z 3009/3106 07004KT 4SM -TSRA SCT010 OVC030CB
     FM301000 VRB03KT 6SM -SHRA SCT015 BKN035
     FM301500 12008KT 6SM -SHRA SCT015 OVC035
      TEMPO 3017/3021 4SM SHRA SCT009 BKN025
     FM310000 12008KT P6SM VCSH SCT015 BKN150=



000
FTUS42 KCHS 300824 AAC
TAFCHS
TAF AMD
KCHS 300824Z 3008/3106 07004KT 6SM -TSRA SCT020CB BKN040
     FM301000 VRB03KT 6SM -SHRA SCT015 BKN035
     FM301500 12008KT 6SM -SHRA SCT015 OVC035
      TEMPO 3017/3021 4SM SHRA SCT009 BKN025
     FM310000 12008KT P6SM VCSH SCT015 BKN150=



000
FTUS42 KCHS 300719 AAB
TAFSAV
TAF AMD
KSAV 300719Z 3007/3106 VRB15G25KT 5SM TSRA BR SCT008 BKN035CB
     FM300900 06005KT P6SM VCSH SCT015 BKN035
     FM301400 10011KT 6SM -SHRA SCT015 BKN030 OVC080
      TEMPO 3016/3020 4SM SHRA SCT008 BKN020
     FM302300 12008KT P6SM VCSH SCT015 BKN200=



000
FTUS42 KCHS 300659 AAA
TAFSAV
TAF AMD
KSAV 300659Z 3007/3106 VRB05G15KT 6SM -TSRA BR BKN035CB
     FM300900 06005KT P6SM VCSH SCT015 BKN035
     FM301400 10011KT 6SM -SHRA SCT015 BKN030 OVC080
      TEMPO 3016/3020 4SM SHRA SCT008 BKN020
     FM302300 12008KT P6SM VCSH SCT015 BKN200=



000
FTUS42 KCHS 300659 AAA
TAFSAV
TAF AMD
KSAV 300659Z 3007/3106 VRB05G15KT 6SM -TSRA BR BKN035CB
     FM300900 06005KT P6SM VCSH SCT015 BKN035
     FM301400 10011KT 6SM -SHRA SCT015 BKN030 OVC080
      TEMPO 3016/3020 4SM SHRA SCT008 BKN020
     FM302300 12008KT P6SM VCSH SCT015 BKN200=



000
FTUS42 KCHS 300531
TAFSAV
TAF
KSAV 300531Z 3006/3106 06004KT P6SM VCSH SCT020 BKN100
     FM300900 06005KT P6SM VCSH SCT015 BKN035
     FM301400 10011KT 6SM -SHRA SCT015 BKN030 OVC080
      TEMPO 3016/3020 4SM SHRA SCT008 BKN020
     FM302300 12008KT P6SM VCSH SCT015 BKN200=



000
FTUS42 KCHS 300531
TAFCHS
TAF
KCHS 300531Z 3006/3106 07004KT P6SM SCT020 BKN150
     FM301000 VRB03KT P6SM VCSH SCT015 BKN120
     FM301500 12008KT 6SM -SHRA SCT015 OVC035
      TEMPO 3017/3021 4SM SHRA SCT009 BKN025
     FM310000 12008KT P6SM VCSH SCT015 BKN150=



000
FTUS42 KCHS 292320
TAFSAV
TAF
KSAV 292320Z 3000/3024 07009KT P6SM SCT025 BKN120
     FM300200 06004KT P6SM VCSH SCT020 BKN100
     FM300700 06005KT P6SM VCSH SCT015 BKN035
     FM301400 10011KT 6SM SHRA SCT020 OVC035=



000
FTUS42 KCHS 292320
TAFCHS
TAF
KCHS 292320Z 3000/3024 06005KT P6SM SCT025 BKN120
     FM300300 07004KT P6SM SCT020 BKN100
     FM300800 VRB03KT P6SM VCSH SCT015 BKN035
     FM301500 12007KT 6SM SHRA SCT020 OVC035=



000
FTUS42 KCHS 292320
TAFSAV
TAF
KSAV 292320Z 3000/3024 07009KT P6SM SCT025 BKN120
     FM300200 06004KT P6SM VCSH SCT020 BKN100
     FM300700 06005KT P6SM VCSH SCT015 BKN035
     FM301400 10011KT 6SM SHRA SCT020 OVC035=



000
FTUS42 KCHS 292320
TAFCHS
TAF
KCHS 292320Z 3000/3024 06005KT P6SM SCT025 BKN120
     FM300300 07004KT P6SM SCT020 BKN100
     FM300800 VRB03KT P6SM VCSH SCT015 BKN035
     FM301500 12007KT 6SM SHRA SCT020 OVC035=



000
FTUS42 KCHS 292123 AAB
TAFCHS
TAF AMD
KCHS 292123Z 2921/3018 03008KT P6SM SCT025 BKN100
     FM300800 05005KT P6SM VCSH SCT015 BKN050=



000
FTUS42 KCHS 292120 AAA
TAFSAV
TAF AMD
KSAV 292120Z 2921/3018 07009KT P6SM SCT025 BKN120
     FM300200 05003KT P6SM VCSH SCT015 BKN040
     FM301400 10009KT P6SM VCSH SCT025 BKN035=



000
FTUS42 KCHS 291739
TAFCHS
TAF
KCHS 291739Z 2918/3018 07008KT P6SM SCT025 BKN100
     FM300800 05005KT P6SM VCSH SCT015 BKN050=



000
FTUS42 KCHS 291739
TAFSAV
TAF
KSAV 291739Z 2918/3018 07009KT P6SM VCSH SCT025 BKN035
     FM300100 05003KT P6SM VCSH SCT015 BKN040
     FM301400 10009KT P6SM VCSH SCT025 BKN035=



000
FTUS42 KCHS 291739
TAFCHS
TAF
KCHS 291739Z 2918/3018 07008KT P6SM SCT025 BKN100
     FM300800 05005KT P6SM VCSH SCT015 BKN050=



000
FTUS42 KCHS 291739
TAFSAV
TAF
KSAV 291739Z 2918/3018 07009KT P6SM VCSH SCT025 BKN035
     FM300100 05003KT P6SM VCSH SCT015 BKN040
     FM301400 10009KT P6SM VCSH SCT025 BKN035=



000
FTUS42 KCHS 291355 AAA
TAFSAV
TAF AMD
KSAV 291355Z 2914/3012 04007KT P6SM VCSH SCT025
      TEMPO 2914/2916 5SM SHRA BKN025
     FM291600 09009KT 6SM -SHRA SCT025 BKN035 OVC150
     FM292100 06003KT P6SM VCSH SCT015 BKN040=



000
FTUS42 KCHS 291355 AAA
TAFSAV
TAF AMD
KSAV 291355Z 2914/3012 04007KT P6SM VCSH SCT025
      TEMPO 2914/2916 5SM SHRA BKN025
     FM291600 09009KT 6SM -SHRA SCT025 BKN035 OVC150
     FM292100 06003KT P6SM VCSH SCT015 BKN040=



000
FTUS42 KCHS 291135
TAFCHS
TAF
KCHS 291135Z 2912/3012 04007KT P6SM SCT025 BKN200
     FM291800 09009KT P6SM BKN040
     FM300000 07003KT P6SM SCT030 BKN150
     FM300800 04003KT P6SM VCSH SCT015 BKN100=



000
FTUS42 KCHS 291135
TAFSAV
TAF
KSAV 291135Z 2912/3012 04007KT P6SM VCSH SCT025 BKN150
     FM291600 09009KT 6SM -SHRA SCT025 BKN035 OVC150
     FM292100 06003KT P6SM VCSH SCT015 BKN040=



000
FTUS42 KCHS 290534
TAFCHS
TAF
KCHS 290534Z 2906/3006 03007KT P6SM SCT015 BKN200
     FM291300 06008KT P6SM SCT025 SCT040 BKN150
     FM291800 09009KT P6SM BKN040
     FM300000 07003KT P6SM SCT030 BKN150=



000
FTUS42 KCHS 290534
TAFSAV
TAF
KSAV 290534Z 2906/3006 04006KT P6SM SCT010 SCT030 BKN150
     FM291400 07009KT P6SM VCSH SCT020 BKN080
     FM291900 09012KT 6SM -SHRA SCT025 BKN035
     FM300000 06003KT P6SM VCSH SCT015 BKN035=



000
FTUS42 KCHS 290233 AAA
TAFSAV
TAF AMD
KSAV 290233Z 2903/2924 04006KT P6SM SCT010 BKN150
     FM290900 VRB03KT 6SM BR VCSH SCT005 BKN010
     FM291400 07009KT P6SM VCSH SCT020 BKN080
     FM291900 09012KT 6SM -SHRA SCT030 BKN050=



000
FTUS42 KCHS 282320
TAFCHS
TAF
KCHS 282320Z 2900/2924 05006KT P6SM FEW025 SCT050 BKN200
     FM291000 VRB03KT P6SM SCT008 SCT035 BKN200
     FM291300 06008KT P6SM SCT025 SCT040 BKN150
     FM291800 09010KT P6SM SCT040 BKN080=



000
FTUS42 KCHS 282320
TAFCHS
TAF
KCHS 282320Z 2900/2924 05006KT P6SM FEW025 SCT050 BKN200
     FM291000 VRB03KT P6SM SCT008 SCT035 BKN200
     FM291300 06008KT P6SM SCT025 SCT040 BKN150
     FM291800 09010KT P6SM SCT040 BKN080=



000
FTUS42 KCHS 282320
TAFSAV
TAF
KSAV 282320Z 2900/2924 05007KT P6SM SCT025 BKN080
     FM290900 VRB03KT 6SM BR SCT005 BKN010
     FM291400 07009KT P6SM VCSH SCT020 BKN080
     FM291900 09012KT 6SM -SHRA SCT030 BKN050=



000
FTUS42 KCHS 282320
TAFSAV
TAF
KSAV 282320Z 2900/2924 05007KT P6SM SCT025 BKN080
     FM290900 VRB03KT 6SM BR SCT005 BKN010
     FM291400 07009KT P6SM VCSH SCT020 BKN080
     FM291900 09012KT 6SM -SHRA SCT030 BKN050=



000
FTUS42 KCHS 282129 AAB
TAFSAV
TAF AMD
KSAV 282129Z 2821/2918 06009KT P6SM VCTS SCT025CB BKN035
      TEMPO 2822/2824 VRB15G25KT 5SM -SHRA BKN025
     FM290000 05007KT P6SM SCT025 BKN080
     FM290500 VRB03KT 6SM BR BKN010
     FM291400 08009KT P6SM SCT015 OVC100=



000
FTUS42 KCHS 282032 AAB
TAFCHS
TAF AMD
KCHS 282032Z 2821/2918 05009KT P6SM VCSH SCT035 BKN250
      TEMPO 2821/2823 5SM SHRA BKN035
     FM290000 08006KT P6SM SCT050 BKN200
     FM291000 VRB03KT P6SM SCT020 BKN150
     FM291300 07007KT P6SM FEW020 BKN100=



000
FTUS42 KCHS 281836 AAA
TAFSAV
TAF AMD
KSAV 281836Z 2819/2918 05008KT P6SM SCT025 BKN250
     FM290500 VRB03KT 6SM BR BKN010
     FM291400 08009KT P6SM SCT015 OVC100=



000
FTUS42 KCHS 281836 AAA
TAFSAV
TAF AMD
KSAV 281836Z 2819/2918 05008KT P6SM SCT025 BKN250
     FM290500 VRB03KT 6SM BR BKN010
     FM291400 08009KT P6SM SCT015 OVC100=



000
FTUS42 KCHS 281730
TAFCHS
TAF
KCHS 281730Z 2818/2918 05009KT P6SM SCT035 BKN250
     FM290000 08006KT P6SM SCT050 BKN200
     FM291000 VRB03KT P6SM SCT020 BKN150
     FM291300 07007KT P6SM FEW020 BKN100=



000
FTUS42 KCHS 281730
TAFSAV
TAF
KSAV 281730Z 2818/2918 07007KT P6SM BKN020
     FM281930 11009KT P6SM FEW015 BKN035
     FM290500 VRB03KT 6SM BR BKN010
     FM291400 08009KT P6SM SCT015 OVC100=



000
FTUS42 KCHS 281549 AAC
TAFSAV
TAF AMD
KSAV 281549Z 2816/2912 08009KT P6SM BKN030
     FM281700 11010KT P6SM SCT040
     FM290000 13008KT P6SM SCT015 SCT030=



000
FTUS42 KCHS 281435 AAB
TAFSAV
TAF AMD
KSAV 281435Z 2815/2912 06007KT P6SM BKN005
     FM281530 08009KT P6SM SCT030 BKN070
     FM281800 11010KT P6SM SCT040
     FM290000 13008KT P6SM SCT015 SCT030=



000
FTUS42 KCHS 281300 AAA
TAFSAV
TAF AMD
KSAV 281300Z 2813/2912 06007KT 3SM BR BKN004
     FM281400 08009KT P6SM FEW040 BKN070
     FM281800 11010KT P6SM SCT040
     FM290000 13008KT P6SM SCT015 SCT030=



000
FTUS42 KCHS 281300 AAA
TAFSAV
TAF AMD
KSAV 281300Z 2813/2912 06007KT 3SM BR BKN004
     FM281400 08009KT P6SM FEW040 BKN070
     FM281800 11010KT P6SM SCT040
     FM290000 13008KT P6SM SCT015 SCT030=



000
FTUS42 KCHS 281255 AAA
TAFCHS
TAF AMD
KCHS 281255Z 2813/2912 06008KT P6SM SCT020 SCT060
     FM281800 10010KT P6SM SCT030 BKN060
     FM290000 07006KT P6SM SCT060=



000
FTUS42 KCHS 281120
TAFCHS
TAF
KCHS 281120Z 2812/2912 03007KT P6SM BKN008
     FM281330 06008KT P6SM SCT020 SCT060
     FM281800 10010KT P6SM SCT030 BKN060
     FM290000 07006KT P6SM SCT060=



000
FTUS42 KCHS 281120
TAFCHS
TAF
KCHS 281120Z 2812/2912 03007KT P6SM BKN008
     FM281330 06008KT P6SM SCT020 SCT060
     FM281800 10010KT P6SM SCT030 BKN060
     FM290000 07006KT P6SM SCT060=



000
FTUS42 KCHS 281120
TAFSAV
TAF
KSAV 281120Z 2812/2912 04006KT 1SM BR OVC004
      TEMPO 2812/2813 3SM BR SCT004 BKN008
     FM281300 06007KT P6SM SCT008 BKN012
     FM281400 08009KT P6SM FEW020 BKN070
     FM281800 11010KT P6SM SCT040
     FM290000 13008KT P6SM SCT015 SCT030=



000
FTUS42 KCHS 281120
TAFSAV
TAF
KSAV 281120Z 2812/2912 04006KT 1SM BR OVC004
      TEMPO 2812/2813 3SM BR SCT004 BKN008
     FM281300 06007KT P6SM SCT008 BKN012
     FM281400 08009KT P6SM FEW020 BKN070
     FM281800 11010KT P6SM SCT040
     FM290000 13008KT P6SM SCT015 SCT030=



000
FTUS42 KCHS 280958 AAD
TAFCHS
TAF AMD
KCHS 280958Z 2810/2906 03004KT P6SM BKN008
      TEMPO 2810/2812 SCT008
     FM281200 06008KT P6SM SCT030
     FM281900 10010KT P6SM SCT030 BKN060
     FM290000 07006KT P6SM SCT250=



000
FTUS42 KCHS 280956 AAC
TAFSAV
TAF AMD
KSAV 280956Z 2810/2906 04006KT P6SM OVC007
      TEMPO 2810/2812 OVC004
     FM281300 06007KT P6SM SCT008 BKN015
     FM281400 08009KT P6SM FEW020 BKN060
     FM281800 11010KT P6SM SCT040
     FM290000 13008KT P6SM SCT015 SCT030=



000
FTUS42 KCHS 280916 AAB
TAFSAV
TAF AMD
KSAV 280916Z 2809/2906 04006KT P6SM SCT008 SCT025
     FM280945 05005KT P6SM OVC007
     FM281300 06007KT P6SM SCT008 BKN015
     FM281400 08009KT P6SM FEW020 BKN060
     FM281800 11010KT P6SM SCT040
     FM290000 13008KT P6SM SCT015 SCT030=



000
FTUS42 KCHS 280845 AAA
TAFSAV
TAF AMD
KSAV 280845Z 2809/2906 03006KT P6SM SCT008 SCT025
      TEMPO 2810/2812 BKN008
     FM281400 08009KT P6SM FEW020 BKN060
     FM281800 11010KT P6SM SCT040
     FM290000 13008KT P6SM SCT015 SCT030=



000
FTUS42 KCHS 280845 AAA
TAFSAV
TAF AMD
KSAV 280845Z 2809/2906 03006KT P6SM SCT008 SCT025
      TEMPO 2810/2812 BKN008
     FM281400 08009KT P6SM FEW020 BKN060
     FM281800 11010KT P6SM SCT040
     FM290000 13008KT P6SM SCT015 SCT030=



000
FTUS42 KCHS 280811 AAB
TAFCHS
TAF AMD
KCHS 280811Z 2808/2906 03004KT P6SM BKN008
      TEMPO 2810/2812 SCT008 BKN015
     FM281200 06008KT P6SM SCT030
     FM281900 10010KT P6SM SCT030 BKN060
     FM290000 07006KT P6SM SCT250=



000
FTUS42 KCHS 280718 AAA
TAFCHS
TAF AMD
KCHS 280718Z 2807/2906 03004KT P6SM SCT008 SCT020
      TEMPO 2807/2808 BKN008
     FM281500 06008KT P6SM SCT030
     FM281900 10010KT P6SM SCT030 BKN060
     FM290000 07006KT P6SM SCT250=



000
FTUS42 KCHS 280531
TAFSAV
TAF
KSAV 280531Z 2806/2906 04006KT P6SM FEW025
     FM281400 08009KT P6SM FEW020 BKN060
     FM281800 11010KT P6SM SCT040
     FM290000 13008KT P6SM SCT015 SCT030=



000
FTUS42 KCHS 280531
TAFCHS
TAF
KCHS 280531Z 2806/2906 03004KT P6SM SCT020
     FM281500 06008KT P6SM SCT030
     FM281900 10010KT P6SM SCT030 BKN060
     FM290000 07006KT P6SM SCT250=



000
FTUS42 KCHS 280531
TAFSAV
TAF
KSAV 280531Z 2806/2906 04006KT P6SM FEW025
     FM281400 08009KT P6SM FEW020 BKN060
     FM281800 11010KT P6SM SCT040
     FM290000 13008KT P6SM SCT015 SCT030=



000
FTUS42 KCHS 280531
TAFCHS
TAF
KCHS 280531Z 2806/2906 03004KT P6SM SCT020
     FM281500 06008KT P6SM SCT030
     FM281900 10010KT P6SM SCT030 BKN060
     FM290000 07006KT P6SM SCT250=



000
FTUS42 KCHS 272350 CCA
TAFCHS
TAF COR
KCHS 272350Z 2800/2824 07007KT P6SM SHRA SCT020 BKN035
     FM280200 03003KT P6SM FEW030 BKN040
     FM281300 06009KT P6SM SCT030 BKN050=



000
FTUS42 KCHS 272350 CCA
TAFCHS
TAF COR
KCHS 272350Z 2800/2824 07007KT P6SM SHRA SCT020 BKN035
     FM280200 03003KT P6SM FEW030 BKN040
     FM281300 06009KT P6SM SCT030 BKN050=



000
FTUS42 KCHS 272331
TAFCHS
TAF
KCHS 272331Z 2800/2824 07007KT 6SM SHRA SCT020 BKN025
     FM280200 03003KT P6SM FEW030 BKN040
     FM281300 06009KT P6SM SCT030 BKN050=



000
FTUS42 KCHS 272331
TAFSAV
TAF
KSAV 272331Z 2800/2824 09005KT P6SM VCSH SCT025 BKN050
     FM280300 05003KT P6SM SCT040 SCT050 BKN080
     FM280700 04003KT P6SM VCSH SCT035 BKN060
     FM281400 08009KT P6SM FEW020 BKN050=



000
FTUS42 KCHS 272331
TAFCHS
TAF
KCHS 272331Z 2800/2824 07007KT 6SM SHRA SCT020 BKN025
     FM280200 03003KT P6SM FEW030 BKN040
     FM281300 06009KT P6SM SCT030 BKN050=



000
FTUS42 KCHS 272331
TAFSAV
TAF
KSAV 272331Z 2800/2824 09005KT P6SM VCSH SCT025 BKN050
     FM280300 05003KT P6SM SCT040 SCT050 BKN080
     FM280700 04003KT P6SM VCSH SCT035 BKN060
     FM281400 08009KT P6SM FEW020 BKN050=



000
FTUS42 KCHS 272114 AAA
TAFCHS
TAF AMD
KCHS 272114Z 2721/2818 07007KT P6SM SCT025 BKN050=



000
FTUS42 KCHS 271728
TAFCHS
TAF
KCHS 271728Z 2718/2818 07007KT P6SM SCT025 BKN050
      TEMPO 2718/2722 5SM SHRA BKN025=



000
FTUS42 KCHS 271728
TAFSAV
TAF
KSAV 271728Z 2718/2818 11007KT P6SM SCT025 BKN050
      TEMPO 2718/2721 VRB10G20KT 4SM -TSRA BKN030CB
     FM280200 VRB03KT P6SM SCT050 SCT080=



000
FTUS42 KCHS 271728
TAFSAV
TAF
KSAV 271728Z 2718/2818 11007KT P6SM SCT025 BKN050
      TEMPO 2718/2721 VRB10G20KT 4SM -TSRA BKN030CB
     FM280200 VRB03KT P6SM SCT050 SCT080=



000
FTUS42 KCHS 271728
TAFCHS
TAF
KCHS 271728Z 2718/2818 07007KT P6SM SCT025 BKN050
      TEMPO 2718/2722 5SM SHRA BKN025=



    US Dept of Commerce
    National Oceanic and Atmospheric Administration
    National Weather Service
    1325 East West Highway
    Silver Spring, MD 20910
    Page Author: NWS Internet Services Team
Disclaimer
Information Quality
Credits
Glossary
Privacy Policy
Freedom of Information Act (FOIA)
About Us
Career Opportunities